sensor_id;sensor_type;location;lat;lon;timestamp;temperature;humidity
25024;DHT22;13033;50.936;5.334;2023-06-14T00:01:35;22.60;99.90
25024;DHT22;13033;50.936;5.334;2023-06-14T00:04:01;22.60;99.90
25024;DHT22;13033;50.936;5.334;2023-06-14T00:06:28;22.60;99.90
25024;DHT22;13033;50.936;5.334;2023-06-14T00:08:54;22.70;99.90
25024;DHT22;13033;50.936;5.334;2023-06-14T00:11:20;22.50;99.90
25024;DHT22;13033;50.936;5.334;2023-06-14T00:13:46;22.50;99.90
25024;DHT22;13033;50.936;5.334;2023-06-14T00:16:12;22.50;99.90
25024;DHT22;13033;50.936;5.334;2023-06-14T00:18:37;22.40;1.00
25024;DHT22;13033;50.936;5.334;2023-06-14T00:21:04;22.40;1.00
25024;DHT22;13033;50.936;5.334;2023-06-14T00:23:30;22.40;1.00
25024;DHT22;13033;50.936;5.334;2023-06-14T00:25:56;22.30;1.00
25024;DHT22;13033;50.936;5.334;2023-06-14T00:28:22;22.30;1.00
25024;DHT22;13033;50.936;5.334;2023-06-14T00:30:47;22.20;1.00
25024;DHT22;13033;50.936;5.334;2023-06-14T00:33:14;22.20;1.00
25024;DHT22;13033;50.936;5.334;2023-06-14T00:35:39;22.10;1.00
25024;DHT22;13033;50.936;5.334;2023-06-14T00:38:05;22.10;1.00
25024;DHT22;13033;50.936;5.334;2023-06-14T00:40:31;22.00;1.00
25024;DHT22;13033;50.936;5.334;2023-06-14T00:42:56;21.80;1.00
25024;DHT22;13033;50.936;5.334;2023-06-14T00:45:22;21.80;1.00
25024;DHT22;13033;50.936;5.334;2023-06-14T00:47:49;21.90;1.00
25024;DHT22;13033;50.936;5.334;2023-06-14T00:50:20;22.00;1.00
25024;DHT22;13033;50.936;5.334;2023-06-14T00:52:46;21.90;1.00
25024;DHT22;13033;50.936;5.334;2023-06-14T00:55:11;21.90;1.00
25024;DHT22;13033;50.936;5.334;2023-06-14T00:57:37;22.00;1.00
25024;DHT22;13033;50.936;5.334;2023-06-14T01:00:04;22.00;1.00
25024;DHT22;13033;50.936;5.334;2023-06-14T01:02:35;21.90;1.00
25024;DHT22;13033;50.936;5.334;2023-06-14T01:05:02;21.90;1.00
25024;DHT22;13033;50.936;5.334;2023-06-14T01:10:27;21.80;1.00
25024;DHT22;13033;50.936;5.334;2023-06-14T01:13:12;21.90;1.00
25024;DHT22;13033;50.936;5.334;2023-06-14T01:15:39;21.80;1.00
25024;DHT22;13033;50.936;5.334;2023-06-14T01:18:06;21.60;1.00
25024;DHT22;13033;50.936;5.334;2023-06-14T01:20:33;21.50;1.00
25024;DHT22;13033;50.936;5.334;2023-06-14T01:23:02;21.50;1.00
25024;DHT22;13033;50.936;5.334;2023-06-14T01:25:27;21.30;1.00
25024;DHT22;13033;50.936;5.334;2023-06-14T01:28:00;21.20;1.00
25024;DHT22;13033;50.936;5.334;2023-06-14T01:30:27;21.20;1.00
25024;DHT22;13033;50.936;5.334;2023-06-14T01:32:54;21.10;1.00
25024;DHT22;13033;50.936;5.334;2023-06-14T01:35:21;21.20;1.00
25024;DHT22;13033;50.936;5.334;2023-06-14T01:37:48;21.20;1.00
25024;DHT22;13033;50.936;5.334;2023-06-14T01:40:15;21.20;1.00
25024;DHT22;13033;50.936;5.334;2023-06-14T01:42:41;21.00;1.00
25024;DHT22;13033;50.936;5.334;2023-06-14T01:45:09;21.00;1.00
25024;DHT22;13033;50.936;5.334;2023-06-14T01:47:35;20.90;1.00
25024;DHT22;13033;50.936;5.334;2023-06-14T01:50:05;20.90;1.00
25024;DHT22;13033;50.936;5.334;2023-06-14T01:52:31;20.80;1.00
25024;DHT22;13033;50.936;5.334;2023-06-14T01:54:57;20.70;1.00
25024;DHT22;13033;50.936;5.334;2023-06-14T01:57:24;20.80;1.00
25024;DHT22;13033;50.936;5.334;2023-06-14T01:59:50;20.80;1.00
25024;DHT22;13033;50.936;5.334;2023-06-14T02:02:16;20.70;1.00
25024;DHT22;13033;50.936;5.334;2023-06-14T02:04:42;20.60;1.00
25024;DHT22;13033;50.936;5.334;2023-06-14T02:07:08;20.50;1.00
25024;DHT22;13033;50.936;5.334;2023-06-14T02:09:34;20.40;1.00
25024;DHT22;13033;50.936;5.334;2023-06-14T02:12:01;20.40;1.00
25024;DHT22;13033;50.936;5.334;2023-06-14T02:14:26;20.50;1.00
25024;DHT22;13033;50.936;5.334;2023-06-14T02:16:52;20.50;1.00
25024;DHT22;13033;50.936;5.334;2023-06-14T02:19:19;20.40;1.00
25024;DHT22;13033;50.936;5.334;2023-06-14T02:21:46;20.30;1.00
25024;DHT22;13033;50.936;5.334;2023-06-14T02:24:12;20.20;1.00
25024;DHT22;13033;50.936;5.334;2023-06-14T02:26:38;20.20;1.00
25024;DHT22;13033;50.936;5.334;2023-06-14T02:29:04;20.20;1.00
25024;DHT22;13033;50.936;5.334;2023-06-14T02:31:32;20.20;1.00
25024;DHT22;13033;50.936;5.334;2023-06-14T02:33:58;20.20;1.00
25024;DHT22;13033;50.936;5.334;2023-06-14T02:36:24;20.20;1.00
25024;DHT22;13033;50.936;5.334;2023-06-14T02:38:50;20.30;1.00
25024;DHT22;13033;50.936;5.334;2023-06-14T02:41:15;20.40;1.00
25024;DHT22;13033;50.936;5.334;2023-06-14T02:43:41;20.30;1.90
25024;DHT22;13033;50.936;5.334;2023-06-14T02:46:07;20.20;9.40
25024;DHT22;13033;50.936;5.334;2023-06-14T02:48:32;20.10;24.00
25024;DHT22;13033;50.936;5.334;2023-06-14T02:50:58;20.20;19.40
25024;DHT22;13033;50.936;5.334;2023-06-14T02:53:24;20.20;19.50
25024;DHT22;13033;50.936;5.334;2023-06-14T02:55:50;20.20;22.80
25024;DHT22;13033;50.936;5.334;2023-06-14T02:58:15;20.10;28.10
25024;DHT22;13033;50.936;5.334;2023-06-14T03:00:42;20.00;49.30
25024;DHT22;13033;50.936;5.334;2023-06-14T03:03:08;20.10;52.30
25024;DHT22;13033;50.936;5.334;2023-06-14T03:05:44;20.00;58.90
25024;DHT22;13033;50.936;5.334;2023-06-14T03:08:13;20.00;73.10
25024;DHT22;13033;50.936;5.334;2023-06-14T03:10:46;19.90;95.30
25024;DHT22;13033;50.936;5.334;2023-06-14T03:13:13;19.80;99.90
25024;DHT22;13033;50.936;5.334;2023-06-14T03:15:39;19.70;99.90
25024;DHT22;13033;50.936;5.334;2023-06-14T03:18:09;19.70;99.90
25024;DHT22;13033;50.936;5.334;2023-06-14T03:20:38;19.70;99.90
25024;DHT22;13033;50.936;5.334;2023-06-14T03:23:04;19.80;99.90
25024;DHT22;13033;50.936;5.334;2023-06-14T03:25:31;19.80;99.90
25024;DHT22;13033;50.936;5.334;2023-06-14T03:27:58;19.90;99.90
25024;DHT22;13033;50.936;5.334;2023-06-14T03:30:24;19.80;99.90
25024;DHT22;13033;50.936;5.334;2023-06-14T03:32:49;19.80;99.90
25024;DHT22;13033;50.936;5.334;2023-06-14T03:35:18;19.80;99.90
25024;DHT22;13033;50.936;5.334;2023-06-14T03:37:45;19.80;99.90
25024;DHT22;13033;50.936;5.334;2023-06-14T03:40:12;19.70;99.90
25024;DHT22;13033;50.936;5.334;2023-06-14T03:42:38;19.70;99.90
25024;DHT22;13033;50.936;5.334;2023-06-14T03:45:05;19.60;99.90
25024;DHT22;13033;50.936;5.334;2023-06-14T03:47:31;19.60;99.90
25024;DHT22;13033;50.936;5.334;2023-06-14T03:49:57;19.60;99.90
25024;DHT22;13033;50.936;5.334;2023-06-14T03:52:23;19.70;99.90
25024;DHT22;13033;50.936;5.334;2023-06-14T03:54:49;19.70;99.90
25024;DHT22;13033;50.936;5.334;2023-06-14T03:57:15;19.80;99.90
25024;DHT22;13033;50.936;5.334;2023-06-14T03:59:41;19.70;99.90
25024;DHT22;13033;50.936;5.334;2023-06-14T04:02:07;19.80;99.90
25024;DHT22;13033;50.936;5.334;2023-06-14T04:04:34;19.70;99.90
25024;DHT22;13033;50.936;5.334;2023-06-14T04:07:01;19.80;99.90
25024;DHT22;13033;50.936;5.334;2023-06-14T04:09:30;19.70;99.90
25024;DHT22;13033;50.936;5.334;2023-06-14T04:11:56;19.70;99.90
25024;DHT22;13033;50.936;5.334;2023-06-14T04:14:22;19.80;99.90
25024;DHT22;13033;50.936;5.334;2023-06-14T04:16:48;19.90;99.90
25024;DHT22;13033;50.936;5.334;2023-06-14T04:19:15;19.80;99.90
25024;DHT22;13033;50.936;5.334;2023-06-14T04:21:41;19.90;99.90
25024;DHT22;13033;50.936;5.334;2023-06-14T04:24:07;19.80;99.90
25024;DHT22;13033;50.936;5.334;2023-06-14T04:26:44;19.70;99.90
25024;DHT22;13033;50.936;5.334;2023-06-14T04:29:11;19.80;99.90
25024;DHT22;13033;50.936;5.334;2023-06-14T04:31:40;19.70;99.90
25024;DHT22;13033;50.936;5.334;2023-06-14T04:34:05;19.80;99.90
25024;DHT22;13033;50.936;5.334;2023-06-14T04:36:34;19.70;99.90
25024;DHT22;13033;50.936;5.334;2023-06-14T04:39:03;19.80;99.90
25024;DHT22;13033;50.936;5.334;2023-06-14T04:41:32;19.90;99.90
25024;DHT22;13033;50.936;5.334;2023-06-14T04:43:59;19.90;99.90
25024;DHT22;13033;50.936;5.334;2023-06-14T04:46:28;19.90;99.90
25024;DHT22;13033;50.936;5.334;2023-06-14T04:48:54;19.90;99.90
25024;DHT22;13033;50.936;5.334;2023-06-14T04:51:20;20.00;99.90
25024;DHT22;13033;50.936;5.334;2023-06-14T04:53:48;19.90;99.90
25024;DHT22;13033;50.936;5.334;2023-06-14T04:56:15;20.00;99.90
25024;DHT22;13033;50.936;5.334;2023-06-14T04:58:40;20.10;99.90
25024;DHT22;13033;50.936;5.334;2023-06-14T05:01:06;20.20;99.90
25024;DHT22;13033;50.936;5.334;2023-06-14T05:03:34;20.10;99.90
25024;DHT22;13033;50.936;5.334;2023-06-14T05:06:00;20.30;99.90
25024;DHT22;13033;50.936;5.334;2023-06-14T05:08:26;20.30;99.90
25024;DHT22;13033;50.936;5.334;2023-06-14T05:10:52;20.40;99.90
25024;DHT22;13033;50.936;5.334;2023-06-14T05:13:18;20.60;99.90
25024;DHT22;13033;50.936;5.334;2023-06-14T05:15:44;20.60;99.90
25024;DHT22;13033;50.936;5.334;2023-06-14T05:18:10;20.70;99.90
25024;DHT22;13033;50.936;5.334;2023-06-14T05:20:36;20.70;99.90
25024;DHT22;13033;50.936;5.334;2023-06-14T05:23:02;20.50;99.90
25024;DHT22;13033;50.936;5.334;2023-06-14T05:25:28;20.70;99.90
25024;DHT22;13033;50.936;5.334;2023-06-14T05:27:54;20.70;99.90
25024;DHT22;13033;50.936;5.334;2023-06-14T05:30:20;20.90;99.90
25024;DHT22;13033;50.936;5.334;2023-06-14T05:32:46;21.00;99.90
25024;DHT22;13033;50.936;5.334;2023-06-14T05:35:11;21.20;99.90
25024;DHT22;13033;50.936;5.334;2023-06-14T05:37:37;21.20;99.90
25024;DHT22;13033;50.936;5.334;2023-06-14T05:40:04;21.30;99.90
25024;DHT22;13033;50.936;5.334;2023-06-14T05:42:31;21.40;99.90
25024;DHT22;13033;50.936;5.334;2023-06-14T05:44:57;21.50;99.90
25024;DHT22;13033;50.936;5.334;2023-06-14T05:47:22;21.70;99.90
25024;DHT22;13033;50.936;5.334;2023-06-14T05:49:48;21.80;99.90
25024;DHT22;13033;50.936;5.334;2023-06-14T05:52:14;21.90;99.70
25024;DHT22;13033;50.936;5.334;2023-06-14T05:54:39;21.90;99.60
25024;DHT22;13033;50.936;5.334;2023-06-14T05:57:06;21.80;86.80
25024;DHT22;13033;50.936;5.334;2023-06-14T05:59:34;21.90;72.80
25024;DHT22;13033;50.936;5.334;2023-06-14T06:01:59;21.90;59.00
25024;DHT22;13033;50.936;5.334;2023-06-14T06:04:25;21.90;54.50
25024;DHT22;13033;50.936;5.334;2023-06-14T06:06:51;21.80;52.90
25024;DHT22;13033;50.936;5.334;2023-06-14T06:09:16;21.90;52.50
25024;DHT22;13033;50.936;5.334;2023-06-14T06:11:42;22.00;43.70
25024;DHT22;13033;50.936;5.334;2023-06-14T06:14:08;21.90;46.80
25024;DHT22;13033;50.936;5.334;2023-06-14T06:16:33;22.10;46.30
25024;DHT22;13033;50.936;5.334;2023-06-14T06:18:59;22.20;40.70
25024;DHT22;13033;50.936;5.334;2023-06-14T06:21:25;22.10;35.90
25024;DHT22;13033;50.936;5.334;2023-06-14T06:23:50;22.40;28.90
25024;DHT22;13033;50.936;5.334;2023-06-14T06:26:16;22.60;22.60
25024;DHT22;13033;50.936;5.334;2023-06-14T06:28:42;22.60;13.90
25024;DHT22;13033;50.936;5.334;2023-06-14T06:31:07;22.70;16.60
25024;DHT22;13033;50.936;5.334;2023-06-14T06:33:33;23.00;11.40
25024;DHT22;13033;50.936;5.334;2023-06-14T06:35:58;23.20;1.00
25024;DHT22;13033;50.936;5.334;2023-06-14T06:38:24;23.20;1.00
25024;DHT22;13033;50.936;5.334;2023-06-14T06:40:50;23.00;1.00
25024;DHT22;13033;50.936;5.334;2023-06-14T06:43:16;22.80;1.00
25024;DHT22;13033;50.936;5.334;2023-06-14T06:45:43;22.80;1.00
25024;DHT22;13033;50.936;5.334;2023-06-14T06:48:08;22.70;1.00
25024;DHT22;13033;50.936;5.334;2023-06-14T06:50:37;22.60;1.00
25024;DHT22;13033;50.936;5.334;2023-06-14T06:53:03;22.50;1.40
25024;DHT22;13033;50.936;5.334;2023-06-14T06:55:30;22.60;3.90
25024;DHT22;13033;50.936;5.334;2023-06-14T06:57:55;22.80;2.70
25024;DHT22;13033;50.936;5.334;2023-06-14T07:00:21;22.80;1.00
25024;DHT22;13033;50.936;5.334;2023-06-14T07:02:47;22.80;1.00
25024;DHT22;13033;50.936;5.334;2023-06-14T07:05:13;22.80;1.00
25024;DHT22;13033;50.936;5.334;2023-06-14T07:07:39;23.00;1.00
25024;DHT22;13033;50.936;5.334;2023-06-14T07:10:05;23.10;1.00
25024;DHT22;13033;50.936;5.334;2023-06-14T07:12:31;23.10;1.00
25024;DHT22;13033;50.936;5.334;2023-06-14T07:14:59;23.00;1.00
25024;DHT22;13033;50.936;5.334;2023-06-14T07:17:26;22.90;1.00
25024;DHT22;13033;50.936;5.334;2023-06-14T07:19:52;23.10;1.00
25024;DHT22;13033;50.936;5.334;2023-06-14T07:22:19;23.20;1.00
25024;DHT22;13033;50.936;5.334;2023-06-14T07:24:52;23.20;1.00
25024;DHT22;13033;50.936;5.334;2023-06-14T07:27:17;23.30;1.00
25024;DHT22;13033;50.936;5.334;2023-06-14T07:29:43;23.50;1.00
25024;DHT22;13033;50.936;5.334;2023-06-14T07:32:08;23.50;1.00
25024;DHT22;13033;50.936;5.334;2023-06-14T07:34:39;23.50;1.00
25024;DHT22;13033;50.936;5.334;2023-06-14T07:37:05;23.50;1.00
25024;DHT22;13033;50.936;5.334;2023-06-14T07:39:30;23.70;1.00
25024;DHT22;13033;50.936;5.334;2023-06-14T07:41:56;23.80;1.00
25024;DHT22;13033;50.936;5.334;2023-06-14T07:44:22;23.80;1.00
25024;DHT22;13033;50.936;5.334;2023-06-14T07:46:47;23.90;1.00
25024;DHT22;13033;50.936;5.334;2023-06-14T07:49:15;24.00;1.00
25024;DHT22;13033;50.936;5.334;2023-06-14T07:51:41;23.80;1.00
25024;DHT22;13033;50.936;5.334;2023-06-14T07:54:06;23.90;1.00
25024;DHT22;13033;50.936;5.334;2023-06-14T07:56:34;23.90;1.00
25024;DHT22;13033;50.936;5.334;2023-06-14T07:58:59;24.10;1.00
25024;DHT22;13033;50.936;5.334;2023-06-14T08:01:25;24.20;1.00
25024;DHT22;13033;50.936;5.334;2023-06-14T08:03:53;24.40;1.00
25024;DHT22;13033;50.936;5.334;2023-06-14T08:06:18;24.50;1.00
25024;DHT22;13033;50.936;5.334;2023-06-14T08:08:44;24.50;1.00
25024;DHT22;13033;50.936;5.334;2023-06-14T08:11:10;24.50;1.00
25024;DHT22;13033;50.936;5.334;2023-06-14T08:13:35;24.50;1.00
25024;DHT22;13033;50.936;5.334;2023-06-14T08:16:01;24.60;1.00
25024;DHT22;13033;50.936;5.334;2023-06-14T08:18:27;24.60;1.00
25024;DHT22;13033;50.936;5.334;2023-06-14T08:20:53;24.60;1.00
25024;DHT22;13033;50.936;5.334;2023-06-14T08:23:19;24.70;1.00
25024;DHT22;13033;50.936;5.334;2023-06-14T08:25:46;24.80;1.00
25024;DHT22;13033;50.936;5.334;2023-06-14T08:28:12;24.60;1.00
25024;DHT22;13033;50.936;5.334;2023-06-14T08:30:38;24.80;1.00
25024;DHT22;13033;50.936;5.334;2023-06-14T08:33:03;24.90;1.00
25024;DHT22;13033;50.936;5.334;2023-06-14T08:35:29;25.00;1.00
25024;DHT22;13033;50.936;5.334;2023-06-14T08:37:54;24.90;1.00
25024;DHT22;13033;50.936;5.334;2023-06-14T08:40:22;25.00;1.00
25024;DHT22;13033;50.936;5.334;2023-06-14T08:42:51;25.20;1.00
25024;DHT22;13033;50.936;5.334;2023-06-14T08:45:18;25.20;1.00
25024;DHT22;13033;50.936;5.334;2023-06-14T08:47:45;25.30;1.00
25024;DHT22;13033;50.936;5.334;2023-06-14T08:50:11;25.20;1.00
25024;DHT22;13033;50.936;5.334;2023-06-14T08:52:38;25.10;1.00
25024;DHT22;13033;50.936;5.334;2023-06-14T08:55:07;25.10;1.00
25024;DHT22;13033;50.936;5.334;2023-06-14T08:57:36;25.20;1.00
25024;DHT22;13033;50.936;5.334;2023-06-14T09:00:03;25.10;1.00
25024;DHT22;13033;50.936;5.334;2023-06-14T09:02:38;25.10;1.00
25024;DHT22;13033;50.936;5.334;2023-06-14T09:05:12;25.40;1.00
25024;DHT22;13033;50.936;5.334;2023-06-14T09:07:44;25.60;1.00
25024;DHT22;13033;50.936;5.334;2023-06-14T09:10:11;25.50;1.00
25024;DHT22;13033;50.936;5.334;2023-06-14T09:12:37;25.50;1.00
25024;DHT22;13033;50.936;5.334;2023-06-14T09:15:04;25.70;1.00
25024;DHT22;13033;50.936;5.334;2023-06-14T09:17:38;25.70;1.00
25024;DHT22;13033;50.936;5.334;2023-06-14T09:20:08;25.50;1.00
25024;DHT22;13033;50.936;5.334;2023-06-14T09:22:36;25.20;1.00
25024;DHT22;13033;50.936;5.334;2023-06-14T09:25:02;25.20;1.00
25024;DHT22;13033;50.936;5.334;2023-06-14T09:27:29;25.20;1.00
25024;DHT22;13033;50.936;5.334;2023-06-14T09:29:55;25.30;1.00
25024;DHT22;13033;50.936;5.334;2023-06-14T09:32:25;25.60;1.00
25024;DHT22;13033;50.936;5.334;2023-06-14T09:34:50;25.90;1.00
25024;DHT22;13033;50.936;5.334;2023-06-14T09:37:30;26.30;1.00
25024;DHT22;13033;50.936;5.334;2023-06-14T09:39:57;26.60;1.00
25024;DHT22;13033;50.936;5.334;2023-06-14T09:42:23;26.40;1.00
25024;DHT22;13033;50.936;5.334;2023-06-14T09:44:52;26.10;1.00
25024;DHT22;13033;50.936;5.334;2023-06-14T09:47:18;26.30;1.00
25024;DHT22;13033;50.936;5.334;2023-06-14T09:49:43;26.40;1.00
25024;DHT22;13033;50.936;5.334;2023-06-14T09:52:15;26.50;1.00
25024;DHT22;13033;50.936;5.334;2023-06-14T09:54:42;25.90;1.00
25024;DHT22;13033;50.936;5.334;2023-06-14T09:57:16;26.00;1.00
25024;DHT22;13033;50.936;5.334;2023-06-14T09:59:46;26.20;1.00
25024;DHT22;13033;50.936;5.334;2023-06-14T10:04:45;26.50;1.00
25024;DHT22;13033;50.936;5.334;2023-06-14T10:07:15;26.50;1.00
25024;DHT22;13033;50.936;5.334;2023-06-14T10:09:45;26.30;1.00
25024;DHT22;13033;50.936;5.334;2023-06-14T10:12:16;26.30;1.00
25024;DHT22;13033;50.936;5.334;2023-06-14T10:14:49;26.50;1.00
25024;DHT22;13033;50.936;5.334;2023-06-14T10:23:21;26.60;1.00
25024;DHT22;13033;50.936;5.334;2023-06-14T10:25:50;26.70;1.00
25024;DHT22;13033;50.936;5.334;2023-06-14T10:28:20;26.70;1.00
25024;DHT22;13033;50.936;5.334;2023-06-14T10:31:11;26.70;1.00
25024;DHT22;13033;50.936;5.334;2023-06-14T10:33:48;27.00;1.00
25024;DHT22;13033;50.936;5.334;2023-06-14T10:36:25;27.00;1.00
25024;DHT22;13033;50.936;5.334;2023-06-14T10:39:17;26.90;1.00
25024;DHT22;13033;50.936;5.334;2023-06-14T10:41:53;27.10;1.00
25024;DHT22;13033;50.936;5.334;2023-06-14T10:46:54;27.20;1.00
25024;DHT22;13033;50.936;5.334;2023-06-14T10:49:45;27.20;1.00
25024;DHT22;13033;50.936;5.334;2023-06-14T10:52:15;27.00;1.00
25024;DHT22;13033;50.936;5.334;2023-06-14T10:55:04;27.20;1.00
25024;DHT22;13033;50.936;5.334;2023-06-14T10:57:34;27.20;1.00
25024;DHT22;13033;50.936;5.334;2023-06-14T11:00:01;27.10;1.00
25024;DHT22;13033;50.936;5.334;2023-06-14T11:05:54;26.90;1.00
25024;DHT22;13033;50.936;5.334;2023-06-14T11:09:47;27.10;1.00
25024;DHT22;13033;50.936;5.334;2023-06-14T11:11:39;27.50;1.00
25024;DHT22;13033;50.936;5.334;2023-06-14T11:14:07;27.30;1.00
25024;DHT22;13033;50.936;5.334;2023-06-14T11:16:33;27.00;1.00
25024;DHT22;13033;50.936;5.334;2023-06-14T11:19:01;27.20;1.00
25024;DHT22;13033;50.936;5.334;2023-06-14T11:21:28;27.30;1.00
25024;DHT22;13033;50.936;5.334;2023-06-14T11:23:57;27.10;1.00
25024;DHT22;13033;50.936;5.334;2023-06-14T11:26:29;27.00;1.00
25024;DHT22;13033;50.936;5.334;2023-06-14T11:28:57;27.20;1.00
25024;DHT22;13033;50.936;5.334;2023-06-14T11:31:23;27.40;1.00
25024;DHT22;13033;50.936;5.334;2023-06-14T11:33:50;27.60;1.00
25024;DHT22;13033;50.936;5.334;2023-06-14T11:36:16;27.70;1.00
25024;DHT22;13033;50.936;5.334;2023-06-14T11:38:42;27.70;99.90
25024;DHT22;13033;50.936;5.334;2023-06-14T11:41:07;27.80;99.90
25024;DHT22;13033;50.936;5.334;2023-06-14T11:43:33;27.80;99.90
25024;DHT22;13033;50.936;5.334;2023-06-14T11:46:00;27.70;99.90
25024;DHT22;13033;50.936;5.334;2023-06-14T11:48:43;27.90;99.90
25024;DHT22;13033;50.936;5.334;2023-06-14T11:51:09;28.00;99.90
25024;DHT22;13033;50.936;5.334;2023-06-14T11:53:35;27.80;99.90
25024;DHT22;13033;50.936;5.334;2023-06-14T11:56:01;27.70;99.90
25024;DHT22;13033;50.936;5.334;2023-06-14T11:58:27;27.40;99.90
25024;DHT22;13033;50.936;5.334;2023-06-14T12:00:54;27.30;99.90
25024;DHT22;13033;50.936;5.334;2023-06-14T12:03:24;27.50;99.90
25024;DHT22;13033;50.936;5.334;2023-06-14T12:06:01;27.60;99.90
25024;DHT22;13033;50.936;5.334;2023-06-14T12:08:35;27.60;99.90
25024;DHT22;13033;50.936;5.334;2023-06-14T12:11:12;28.00;99.90
25024;DHT22;13033;50.936;5.334;2023-06-14T12:13:39;28.40;99.90
25024;DHT22;13033;50.936;5.334;2023-06-14T12:16:11;28.50;99.90
25024;DHT22;13033;50.936;5.334;2023-06-14T12:18:39;28.30;99.90
25024;DHT22;13033;50.936;5.334;2023-06-14T12:21:06;28.30;99.90
25024;DHT22;13033;50.936;5.334;2023-06-14T12:23:48;28.30;99.90
25024;DHT22;13033;50.936;5.334;2023-06-14T12:26:18;28.30;99.90
25024;DHT22;13033;50.936;5.334;2023-06-14T12:28:45;28.40;99.90
25024;DHT22;13033;50.936;5.334;2023-06-14T12:31:12;28.30;99.90
25024;DHT22;13033;50.936;5.334;2023-06-14T12:33:40;28.10;99.90
25024;DHT22;13033;50.936;5.334;2023-06-14T12:36:10;28.00;99.90
25024;DHT22;13033;50.936;5.334;2023-06-14T12:38:36;28.00;99.90
25024;DHT22;13033;50.936;5.334;2023-06-14T12:41:02;28.00;99.90
25024;DHT22;13033;50.936;5.334;2023-06-14T12:43:28;27.80;99.90
25024;DHT22;13033;50.936;5.334;2023-06-14T12:45:54;28.00;99.90
25024;DHT22;13033;50.936;5.334;2023-06-14T12:48:20;28.10;99.90
25024;DHT22;13033;50.936;5.334;2023-06-14T12:50:46;28.10;99.90
25024;DHT22;13033;50.936;5.334;2023-06-14T12:53:11;27.80;99.90
25024;DHT22;13033;50.936;5.334;2023-06-14T12:55:37;27.80;99.90
25024;DHT22;13033;50.936;5.334;2023-06-14T12:58:03;28.00;99.90
25024;DHT22;13033;50.936;5.334;2023-06-14T13:00:29;28.10;99.90
25024;DHT22;13033;50.936;5.334;2023-06-14T13:02:56;28.40;99.90
25024;DHT22;13033;50.936;5.334;2023-06-14T13:05:22;28.50;99.90
25024;DHT22;13033;50.936;5.334;2023-06-14T13:07:48;28.30;99.90
25024;DHT22;13033;50.936;5.334;2023-06-14T13:10:14;28.40;99.90
25024;DHT22;13033;50.936;5.334;2023-06-14T13:12:39;28.20;99.90
25024;DHT22;13033;50.936;5.334;2023-06-14T13:15:06;28.00;99.90
25024;DHT22;13033;50.936;5.334;2023-06-14T13:17:33;28.00;99.90
25024;DHT22;13033;50.936;5.334;2023-06-14T13:20:07;28.00;99.90
25024;DHT22;13033;50.936;5.334;2023-06-14T13:22:36;27.90;99.90
25024;DHT22;13033;50.936;5.334;2023-06-14T13:25:02;27.90;99.90
25024;DHT22;13033;50.936;5.334;2023-06-14T13:27:28;27.90;99.90
25024;DHT22;13033;50.936;5.334;2023-06-14T13:29:54;28.10;99.90
25024;DHT22;13033;50.936;5.334;2023-06-14T13:32:23;27.90;99.90
25024;DHT22;13033;50.936;5.334;2023-06-14T13:34:49;28.10;99.90
25024;DHT22;13033;50.936;5.334;2023-06-14T13:37:15;29.10;99.90
25024;DHT22;13033;50.936;5.334;2023-06-14T13:39:41;29.80;99.90
25024;DHT22;13033;50.936;5.334;2023-06-14T13:42:07;30.40;99.90
25024;DHT22;13033;50.936;5.334;2023-06-14T13:44:32;30.90;99.90
25024;DHT22;13033;50.936;5.334;2023-06-14T13:46:58;30.60;99.90
25024;DHT22;13033;50.936;5.334;2023-06-14T13:49:24;30.90;99.90
25024;DHT22;13033;50.936;5.334;2023-06-14T13:51:49;31.60;99.90
25024;DHT22;13033;50.936;5.334;2023-06-14T13:54:20;31.70;99.90
25024;DHT22;13033;50.936;5.334;2023-06-14T13:59:25;32.10;99.90
25024;DHT22;13033;50.936;5.334;2023-06-14T14:01:51;33.00;99.90
25024;DHT22;13033;50.936;5.334;2023-06-14T14:04:17;33.30;99.90
25024;DHT22;13033;50.936;5.334;2023-06-14T14:06:43;33.30;99.90
25024;DHT22;13033;50.936;5.334;2023-06-14T14:09:08;33.90;99.90
25024;DHT22;13033;50.936;5.334;2023-06-14T14:11:34;34.50;99.90
25024;DHT22;13033;50.936;5.334;2023-06-14T14:14:00;34.50;99.90
25024;DHT22;13033;50.936;5.334;2023-06-14T14:16:26;35.10;99.90
25024;DHT22;13033;50.936;5.334;2023-06-14T14:18:52;35.10;99.90
25024;DHT22;13033;50.936;5.334;2023-06-14T14:21:18;35.00;99.90
25024;DHT22;13033;50.936;5.334;2023-06-14T14:23:43;34.90;99.90
25024;DHT22;13033;50.936;5.334;2023-06-14T14:26:10;35.20;99.90
25024;DHT22;13033;50.936;5.334;2023-06-14T14:28:36;35.00;99.90
25024;DHT22;13033;50.936;5.334;2023-06-14T14:31:02;35.30;99.90
25024;DHT22;13033;50.936;5.334;2023-06-14T14:33:27;35.50;99.90
25024;DHT22;13033;50.936;5.334;2023-06-14T14:35:53;34.90;99.90
25024;DHT22;13033;50.936;5.334;2023-06-14T14:38:19;34.10;99.90
25024;DHT22;13033;50.936;5.334;2023-06-14T14:40:44;34.40;99.90
25024;DHT22;13033;50.936;5.334;2023-06-14T14:43:10;35.10;99.90
25024;DHT22;13033;50.936;5.334;2023-06-14T14:45:36;35.40;99.90
25024;DHT22;13033;50.936;5.334;2023-06-14T14:48:02;36.10;99.90
25024;DHT22;13033;50.936;5.334;2023-06-14T14:50:28;35.00;99.90
25024;DHT22;13033;50.936;5.334;2023-06-14T14:52:54;34.10;99.90
25024;DHT22;13033;50.936;5.334;2023-06-14T14:55:20;33.60;99.90
25024;DHT22;13033;50.936;5.334;2023-06-14T14:57:46;33.90;99.90
25024;DHT22;13033;50.936;5.334;2023-06-14T15:00:13;33.40;99.90
25024;DHT22;13033;50.936;5.334;2023-06-14T15:02:39;33.10;99.90
25024;DHT22;13033;50.936;5.334;2023-06-14T15:05:05;33.50;99.90
25024;DHT22;13033;50.936;5.334;2023-06-14T15:07:31;33.30;99.90
25024;DHT22;13033;50.936;5.334;2023-06-14T15:10:02;34.20;99.90
25024;DHT22;13033;50.936;5.334;2023-06-14T15:12:29;34.60;99.90
25024;DHT22;13033;50.936;5.334;2023-06-14T15:14:55;35.20;99.90
25024;DHT22;13033;50.936;5.334;2023-06-14T15:17:21;36.00;99.90
25024;DHT22;13033;50.936;5.334;2023-06-14T15:19:47;36.10;99.90
25024;DHT22;13033;50.936;5.334;2023-06-14T15:22:14;34.40;99.90
25024;DHT22;13033;50.936;5.334;2023-06-14T15:24:43;35.30;99.90
25024;DHT22;13033;50.936;5.334;2023-06-14T15:27:09;35.80;99.90
25024;DHT22;13033;50.936;5.334;2023-06-14T15:29:36;36.40;99.90
25024;DHT22;13033;50.936;5.334;2023-06-14T15:32:02;37.00;99.90
25024;DHT22;13033;50.936;5.334;2023-06-14T15:34:28;38.00;99.90
25024;DHT22;13033;50.936;5.334;2023-06-14T15:36:53;38.50;99.90
25024;DHT22;13033;50.936;5.334;2023-06-14T15:39:19;38.40;99.90
25024;DHT22;13033;50.936;5.334;2023-06-14T15:41:45;38.20;99.90
25024;DHT22;13033;50.936;5.334;2023-06-14T15:44:11;37.50;99.90
25024;DHT22;13033;50.936;5.334;2023-06-14T15:46:37;38.20;99.90
25024;DHT22;13033;50.936;5.334;2023-06-14T15:49:08;39.20;99.90
25024;DHT22;13033;50.936;5.334;2023-06-14T15:51:35;39.60;99.90
25024;DHT22;13033;50.936;5.334;2023-06-14T15:54:01;39.70;99.90
25024;DHT22;13033;50.936;5.334;2023-06-14T15:56:27;39.30;99.90
25024;DHT22;13033;50.936;5.334;2023-06-14T15:58:52;39.30;99.90